createdAt,value
2019-01-10T00:00:13.946Z,1017.89
2019-01-10T00:01:13.950Z,1017.87
2019-01-10T00:02:13.960Z,1017.93
2019-01-10T00:03:13.973Z,1017.97
2019-01-10T00:04:14.003Z,1017.97
2019-01-10T00:05:13.986Z,1018.00
2019-01-10T00:06:14.000Z,1017.99
2019-01-10T00:07:14.010Z,1018.02
2019-01-10T00:08:14.018Z,1017.98
2019-01-10T00:09:14.026Z,1017.93
2019-01-10T00:10:14.182Z,1017.96
2019-01-10T00:11:14.055Z,1017.93
2019-01-10T00:12:14.066Z,1017.93
2019-01-10T00:13:14.067Z,1018.10
2019-01-10T00:14:14.089Z,1018.06
2019-01-10T00:15:14.095Z,1018.05
2019-01-10T00:16:14.159Z,1018.05
2019-01-10T00:17:14.114Z,1018.04
2019-01-10T00:18:14.126Z,1018.05
2019-01-10T00:19:14.132Z,1018.03
2019-01-10T00:20:14.143Z,1018.07
2019-01-10T00:21:14.155Z,1018.06
2019-01-10T00:22:14.165Z,1018.02
2019-01-10T00:23:14.173Z,1017.99
2019-01-10T00:24:14.190Z,1018.02
2019-01-10T00:25:14.194Z,1018.02
2019-01-10T00:26:14.208Z,1018.01
2019-01-10T00:27:14.218Z,1018.05
2019-01-10T00:28:14.225Z,1018.02
2019-01-10T00:29:14.237Z,1017.99
2019-01-10T00:30:14.246Z,1017.95
2019-01-10T00:31:14.259Z,1017.99
2019-01-10T00:32:14.274Z,1017.96
2019-01-10T00:33:14.364Z,1017.98
2019-01-10T00:34:14.289Z,1017.96
2019-01-10T00:35:14.300Z,1018.01
2019-01-10T00:36:14.306Z,1018.06
2019-01-10T00:37:14.320Z,1018.01
2019-01-10T00:38:14.333Z,1018.01
2019-01-10T00:39:14.343Z,1017.93
2019-01-10T00:40:14.355Z,1017.93
2019-01-10T00:41:14.397Z,1017.97
2019-01-10T00:42:14.373Z,1018.00
2019-01-10T00:43:14.382Z,1018.03
2019-01-10T00:44:14.393Z,1018.01
2019-01-10T00:45:14.405Z,1017.99
2019-01-10T00:46:14.416Z,1018.04
2019-01-10T00:47:14.426Z,1018.03
2019-01-10T00:48:14.433Z,1018.01
2019-01-10T00:49:14.444Z,1018.12
2019-01-10T00:50:14.455Z,1018.12
2019-01-10T00:51:14.465Z,1018.18
2019-01-10T00:52:14.476Z,1018.19
2019-01-10T00:53:14.488Z,1018.16
2019-01-10T00:54:14.498Z,1018.20
2019-01-10T00:55:14.510Z,1018.22
2019-01-10T00:56:14.517Z,1018.20
2019-01-10T00:57:14.591Z,1018.16
2019-01-10T00:58:14.555Z,1018.09
2019-01-10T00:59:14.545Z,1018.04
2019-01-10T01:00:14.565Z,1018.05
2019-01-10T01:01:14.570Z,1018.06
2019-01-10T01:02:14.582Z,1018.04
2019-01-10T01:03:14.595Z,1018.07
2019-01-10T01:04:14.603Z,1018.06
2019-01-10T01:05:14.613Z,1018.07
2019-01-10T01:06:15.761Z,1018.08
2019-01-10T01:07:14.634Z,1018.08
2019-01-10T01:08:14.641Z,1018.10
2019-01-10T01:09:14.650Z,1018.11
2019-01-10T01:10:14.666Z,1018.13
2019-01-10T01:11:14.679Z,1018.11
2019-01-10T01:12:14.689Z,1018.12
2019-01-10T01:13:14.694Z,1018.17
2019-01-10T01:14:14.703Z,1018.20
2019-01-10T01:15:14.718Z,1018.23
2019-01-10T01:16:14.743Z,1018.28
2019-01-10T01:17:15.891Z,1018.25
2019-01-10T01:18:14.747Z,1018.27
2019-01-10T01:19:14.761Z,1018.27
2019-01-10T01:20:14.764Z,1018.27
2019-01-10T01:21:14.776Z,1018.32
2019-01-10T01:22:14.789Z,1018.31
2019-01-10T01:23:14.801Z,1018.31
2019-01-10T01:24:14.807Z,1018.34
2019-01-10T01:25:14.821Z,1018.31
2019-01-10T01:26:14.828Z,1018.34
2019-01-10T01:27:14.846Z,1018.33
2019-01-10T01:28:14.851Z,1018.26
2019-01-10T01:29:14.859Z,1018.31
2019-01-10T01:30:14.873Z,1018.34
2019-01-10T01:31:14.880Z,1018.34
2019-01-10T01:32:14.891Z,1018.31
2019-01-10T01:33:14.902Z,1018.33
2019-01-10T01:34:14.920Z,1018.34
2019-01-10T01:35:14.924Z,1018.34
2019-01-10T01:36:14.933Z,1018.39
2019-01-10T01:37:14.939Z,1018.41
2019-01-10T01:38:14.953Z,1018.44
2019-01-10T01:39:14.961Z,1018.49
2019-01-10T01:40:14.974Z,1018.49
2019-01-10T01:41:14.985Z,1018.53
2019-01-10T01:42:14.997Z,1018.48
2019-01-10T01:43:15.006Z,1018.47
2019-01-10T01:44:15.016Z,1018.44
2019-01-10T01:45:15.021Z,1018.47
2019-01-10T01:46:15.034Z,1018.50
2019-01-10T01:47:15.045Z,1018.49
2019-01-10T01:48:15.056Z,1018.46
2019-01-10T01:49:15.065Z,1018.46
2019-01-10T01:50:15.074Z,1018.45
2019-01-10T01:51:15.089Z,1018.51
2019-01-10T01:52:15.096Z,1018.51
2019-01-10T01:53:15.133Z,1018.54
2019-01-10T01:54:15.120Z,1018.54
2019-01-10T01:55:15.133Z,1018.59
2019-01-10T01:56:15.142Z,1018.59
2019-01-10T01:57:15.149Z,1018.58
2019-01-10T01:58:15.157Z,1018.56
2019-01-10T01:59:15.171Z,1018.62
2019-01-10T02:00:15.180Z,1018.64
2019-01-10T02:01:15.189Z,1018.59
2019-01-10T02:02:15.199Z,1018.62
2019-01-10T02:03:15.214Z,1018.61
2019-01-10T02:04:15.217Z,1018.63
2019-01-10T02:05:15.227Z,1018.60
2019-01-10T02:06:15.241Z,1018.67
2019-01-10T02:07:15.247Z,1018.71
2019-01-10T02:08:15.270Z,1018.73
2019-01-10T02:09:15.271Z,1018.69
2019-01-10T02:10:15.294Z,1018.71
2019-01-10T02:11:15.289Z,1018.70
2019-01-10T02:12:15.297Z,1018.71
2019-01-10T02:13:16.995Z,1018.72
2019-01-10T02:14:15.318Z,1018.71
2019-01-10T02:15:15.330Z,1018.72
2019-01-10T02:16:15.339Z,1018.76
2019-01-10T02:17:15.356Z,1018.78
2019-01-10T02:18:15.361Z,1018.77
2019-01-10T02:19:15.371Z,1018.80
2019-01-10T02:20:15.439Z,1018.79
2019-01-10T02:21:15.398Z,1018.73
2019-01-10T02:22:15.411Z,1018.76
2019-01-10T02:23:15.415Z,1018.79
2019-01-10T02:24:15.423Z,1018.77
2019-01-10T02:25:15.432Z,1018.78
2019-01-10T02:26:15.449Z,1018.82
2019-01-10T02:27:15.457Z,1018.83
2019-01-10T02:28:15.479Z,1018.84
2019-01-10T02:29:15.471Z,1018.84
2019-01-10T02:30:15.496Z,1018.85
2019-01-10T02:31:15.537Z,1018.87
2019-01-10T02:32:15.508Z,1018.88
2019-01-10T02:33:15.517Z,1018.92
2019-01-10T02:34:15.525Z,1018.89
2019-01-10T02:35:15.544Z,1018.88
2019-01-10T02:36:15.557Z,1018.89
2019-01-10T02:37:15.557Z,1018.90
2019-01-10T02:38:15.582Z,1018.92
2019-01-10T02:39:15.579Z,1018.95
2019-01-10T02:40:15.594Z,1018.93
2019-01-10T02:41:15.599Z,1018.92
2019-01-10T02:42:15.614Z,1018.93
2019-01-10T02:43:15.621Z,1018.96
2019-01-10T02:44:15.625Z,1018.94
2019-01-10T02:45:15.638Z,1018.96
2019-01-10T02:46:15.656Z,1018.99
2019-01-10T02:47:15.660Z,1019.00
2019-01-10T02:48:15.680Z,1019.01
2019-01-10T02:49:15.685Z,1019.02
2019-01-10T02:50:15.693Z,1019.03
2019-01-10T02:51:15.702Z,1019.07
2019-01-10T02:52:15.715Z,1019.05
2019-01-10T02:53:15.730Z,1019.06
2019-01-10T02:54:15.845Z,1019.10
2019-01-10T02:55:15.750Z,1019.03
2019-01-10T02:56:15.753Z,1019.06
2019-01-10T02:57:15.767Z,1019.06
2019-01-10T02:58:15.774Z,1019.04
2019-01-10T02:59:15.786Z,1019.02
2019-01-10T03:00:15.806Z,1019.01
2019-01-10T03:01:15.804Z,1018.99
2019-01-10T03:02:15.812Z,1019.06
2019-01-10T03:03:15.825Z,1019.03
2019-01-10T03:04:15.847Z,1019.06
2019-01-10T03:05:15.848Z,1019.07
2019-01-10T03:06:15.854Z,1019.06
2019-01-10T03:07:15.864Z,1019.03
2019-01-10T03:08:15.875Z,1019.05
2019-01-10T03:09:15.887Z,1019.01
2019-01-10T03:38:48.369Z,1018.79
2019-01-10T03:39:48.350Z,1018.80
2019-01-10T03:41:40.237Z,1018.84
2019-01-10T03:42:40.233Z,1018.86
2019-01-10T03:44:34.388Z,1018.83
2019-01-10T03:45:32.157Z,1018.80
2019-01-10T03:47:24.041Z,1018.79
2019-01-10T03:48:24.043Z,1018.80
2019-01-10T03:50:15.965Z,1018.82
2019-01-10T03:51:15.946Z,1018.72
2019-01-10T03:53:07.856Z,1018.80
2019-01-10T03:54:07.839Z,1018.82
2019-01-10T03:55:59.761Z,1018.83
2019-01-10T03:56:59.741Z,1018.86
2019-01-10T03:58:51.681Z,1018.89
2019-01-10T03:59:52.901Z,1018.88
2019-01-10T04:01:43.540Z,1018.88
2019-01-10T04:02:43.544Z,1018.91
2019-01-10T04:04:35.458Z,1018.86
2019-01-10T04:05:35.441Z,1018.86
2019-01-10T04:07:27.341Z,1018.88
2019-01-10T04:08:27.346Z,1018.87
2019-01-10T04:10:19.272Z,1018.87
2019-01-10T04:11:19.253Z,1018.84
2019-01-10T04:13:11.645Z,1018.93
2019-01-10T04:14:11.649Z,1018.90
2019-01-10T04:16:03.569Z,1018.88
2019-01-10T04:17:03.552Z,1018.84
2019-01-10T04:18:55.468Z,1018.91
2019-01-10T04:19:55.482Z,1018.91
2019-01-10T04:21:47.862Z,1018.93
2019-01-10T04:22:47.856Z,1018.96
2019-01-10T04:24:39.790Z,1018.92
2019-01-10T04:25:39.773Z,1018.90
2019-01-10T04:27:31.671Z,1018.90
2019-01-10T04:28:31.671Z,1018.95
2019-01-10T04:30:23.601Z,1018.98
2019-01-10T04:31:23.583Z,1018.99
2019-01-10T04:33:15.505Z,1019.01
2019-01-10T04:34:15.505Z,1019.07
2019-01-10T04:36:07.902Z,1019.06
2019-01-10T04:37:07.893Z,1019.06
2019-01-10T04:38:59.797Z,1019.09
2019-01-10T04:39:59.805Z,1019.06
2019-01-10T04:41:51.713Z,1019.09
2019-01-10T04:42:51.697Z,1019.15
2019-01-10T04:44:43.650Z,1019.15
2019-01-10T04:45:43.602Z,1019.15
2019-01-10T04:47:35.501Z,1019.11
2019-01-10T04:48:35.502Z,1019.17
2019-01-10T04:50:27.439Z,1019.20
2019-01-10T04:51:27.417Z,1019.10
2019-01-10T04:53:19.343Z,1019.09
2019-01-10T04:54:19.344Z,1019.06
2019-01-10T04:56:11.263Z,1019.05
2019-01-10T04:57:11.255Z,1019.08
2019-01-10T04:59:03.156Z,1019.08
2019-01-10T05:00:03.155Z,1019.08
2019-01-10T05:01:55.070Z,1019.16
2019-01-10T05:02:55.050Z,1019.14
2019-01-10T05:04:47.812Z,1019.15
2019-01-10T05:05:47.539Z,1019.17
2019-01-10T05:07:39.442Z,1019.12
2019-01-10T05:08:39.451Z,1019.11
2019-01-10T05:10:31.366Z,1019.10
2019-01-10T05:11:31.346Z,1019.12
2019-01-10T05:13:23.254Z,1019.09
2019-01-10T05:14:23.256Z,1019.10
2019-01-10T05:16:15.183Z,1019.11
2019-01-10T05:17:15.164Z,1019.12
2019-01-10T05:19:07.060Z,1019.13
2019-01-10T05:20:07.065Z,1019.13
2019-01-10T05:21:59.004Z,1019.11
2019-01-10T05:22:58.985Z,1019.10
2019-01-10T05:24:50.889Z,1019.11
2019-01-10T05:25:50.899Z,1019.14
2019-01-10T05:27:42.825Z,1019.07
2019-01-10T05:28:42.816Z,1019.03
2019-01-10T05:30:34.736Z,1019.08
2019-01-10T05:31:34.722Z,1019.06
2019-01-10T05:33:26.638Z,1019.09
2019-01-10T05:34:26.638Z,1019.10
2019-01-10T05:36:18.564Z,1019.12
2019-01-10T05:37:18.543Z,1019.07
2019-01-10T05:39:10.446Z,1019.12
2019-01-10T05:40:10.445Z,1019.17
2019-01-10T05:42:02.373Z,1019.17
2019-01-10T05:43:02.353Z,1019.17
2019-01-10T05:44:54.348Z,1019.18
2019-01-10T05:45:54.355Z,1019.15
2019-01-10T05:47:47.826Z,1019.20
2019-01-10T05:48:47.808Z,1019.19
2019-01-10T05:50:39.773Z,1019.20
2019-01-10T05:51:39.741Z,1019.18
2019-01-10T05:53:32.144Z,1019.19
2019-01-10T05:54:32.137Z,1019.20
2019-01-10T05:56:24.086Z,1019.22
2019-01-10T05:57:24.067Z,1019.25
2019-01-10T05:59:15.967Z,1019.27
2019-01-10T06:00:15.980Z,1019.33
2019-01-10T06:02:07.885Z,1019.34
2019-01-10T06:03:07.882Z,1019.31
2019-01-10T06:05:00.637Z,1019.37
2019-01-10T06:05:59.998Z,1019.41
2019-01-10T06:07:52.084Z,1019.45
2019-01-10T06:08:51.951Z,1019.51
2019-01-10T06:10:45.690Z,1019.50
2019-01-10T06:11:43.856Z,1019.47
2019-01-10T06:13:35.802Z,1019.48
2019-01-10T06:14:36.029Z,1019.47
2019-01-10T06:16:27.733Z,1019.49
2019-01-10T06:17:27.714Z,1019.50
2019-01-10T06:19:26.651Z,1019.49
2019-01-10T06:20:19.663Z,1019.53
2019-01-10T06:22:12.074Z,1019.53
2019-01-10T06:23:11.812Z,1019.57
2019-01-10T06:25:05.670Z,1019.59
2019-01-10T06:26:05.468Z,1019.63
2019-01-10T06:27:57.310Z,1019.60
2019-01-10T06:28:57.291Z,1019.62
2019-01-10T06:29:57.302Z,1019.66
2019-01-10T06:30:57.315Z,1019.63
2019-01-10T06:31:57.320Z,1019.63
2019-01-10T06:32:57.332Z,1019.66
2019-01-10T06:33:57.342Z,1019.65
2019-01-10T06:34:57.407Z,1019.61
2019-01-10T06:35:57.368Z,1019.63
2019-01-10T06:36:57.386Z,1019.67
2019-01-10T06:37:57.389Z,1019.68
2019-01-10T06:38:57.395Z,1019.69
2019-01-10T06:39:57.407Z,1019.70
2019-01-10T06:40:57.426Z,1019.70
2019-01-10T06:41:57.429Z,1019.71
2019-01-10T06:42:57.484Z,1019.67
2019-01-10T06:43:57.455Z,1019.67
2019-01-10T06:44:57.490Z,1019.69
2019-01-10T06:45:57.477Z,1019.70
2019-01-10T06:46:57.507Z,1019.72
2019-01-10T06:47:57.496Z,1019.76
2019-01-10T06:48:57.504Z,1019.72
2019-01-10T06:49:57.522Z,1019.76
2019-01-10T06:50:57.546Z,1019.72
2019-01-10T06:51:57.542Z,1019.71
2019-01-10T06:52:57.548Z,1019.73
2019-01-10T06:53:57.572Z,1019.71
2019-01-10T06:54:57.566Z,1019.71
2019-01-10T06:55:57.574Z,1019.76
2019-01-10T06:56:57.587Z,1019.75
2019-01-10T06:57:57.596Z,1019.78
2019-01-10T06:58:57.609Z,1019.82
2019-01-10T06:59:57.623Z,1019.82
2019-01-10T07:00:57.629Z,1019.78
2019-01-10T07:01:57.642Z,1019.77
2019-01-10T07:02:57.658Z,1019.82
2019-01-10T07:03:57.663Z,1019.82
2019-01-10T07:04:57.672Z,1019.89
2019-01-10T07:05:57.686Z,1019.81
2019-01-10T07:06:57.702Z,1019.85
2019-01-10T07:07:57.710Z,1019.84
2019-01-10T07:08:57.724Z,1019.89
2019-01-10T07:09:57.726Z,1019.93
2019-01-10T07:10:57.741Z,1019.82
2019-01-10T07:11:57.747Z,1019.92
2019-01-10T07:12:57.759Z,1019.87
2019-01-10T07:13:57.774Z,1019.87
2019-01-10T07:14:57.834Z,1019.90
2019-01-10T07:15:57.785Z,1019.86
2019-01-10T07:16:57.801Z,1019.89
2019-01-10T07:17:57.876Z,1019.88
2019-01-10T07:18:57.815Z,1019.93
2019-01-10T07:19:57.839Z,1019.95
2019-01-10T07:20:57.886Z,1019.93
2019-01-10T07:21:57.845Z,1019.93
2019-01-10T07:22:57.863Z,1019.95
2019-01-10T07:23:57.872Z,1019.96
2019-01-10T07:24:57.882Z,1019.98
2019-01-10T07:25:57.895Z,1019.95
2019-01-10T07:26:57.898Z,1019.88
2019-01-10T07:27:57.976Z,1019.95
2019-01-10T07:28:57.935Z,1019.98
2019-01-10T07:29:59.547Z,1019.97
2019-01-10T07:30:57.975Z,1019.98
2019-01-10T07:31:58.045Z,1019.98
2019-01-10T07:32:57.966Z,1020.03
2019-01-10T07:33:58.049Z,1020.05
2019-01-10T07:34:58.096Z,1020.10
2019-01-10T07:35:58.013Z,1020.09
2019-01-10T07:36:58.016Z,1020.09
2019-01-10T07:37:58.023Z,1020.05
2019-01-10T07:38:58.218Z,1020.11
2019-01-10T07:39:58.051Z,1020.12
2019-01-10T07:40:58.054Z,1020.15
2019-01-10T07:41:58.070Z,1020.09
2019-01-10T07:42:58.080Z,1020.05
2019-01-10T07:43:58.096Z,1020.05
2019-01-10T07:45:02.900Z,1020.03
2019-01-10T07:45:58.110Z,1020.10
2019-01-10T07:46:58.123Z,1020.11
2019-01-10T07:47:58.195Z,1020.16
2019-01-10T07:48:58.148Z,1020.15
2019-01-10T07:49:58.213Z,1020.22
2019-01-10T07:50:58.160Z,1020.20
2019-01-10T07:51:58.171Z,1020.18
2019-01-10T07:52:58.184Z,1020.17
2019-01-10T07:53:58.193Z,1020.19
2019-01-10T07:54:58.205Z,1020.19
2019-01-10T07:55:58.217Z,1020.26
2019-01-10T07:56:58.233Z,1020.24
2019-01-10T07:57:58.236Z,1020.25
2019-01-10T07:58:58.243Z,1020.23
2019-01-10T07:59:58.259Z,1020.28
2019-01-10T08:00:58.265Z,1020.24
2019-01-10T08:01:58.279Z,1020.22
2019-01-10T08:02:58.302Z,1020.21
2019-01-10T08:03:58.313Z,1020.21
2019-01-10T08:04:58.317Z,1020.21
2019-01-10T08:05:58.328Z,1020.18
2019-01-10T08:06:58.334Z,1020.18
2019-01-10T08:07:58.345Z,1020.24
2019-01-10T08:08:58.385Z,1020.26
2019-01-10T08:09:58.378Z,1020.31
2019-01-10T08:10:58.388Z,1020.34
2019-01-10T08:12:00.657Z,1020.34
2019-01-10T08:12:58.405Z,1020.33
2019-01-10T08:13:58.439Z,1020.32
2019-01-10T08:14:58.407Z,1020.36
2019-01-10T08:15:58.438Z,1020.34
2019-01-10T08:16:58.458Z,1020.38
2019-01-10T08:17:58.452Z,1020.41
2019-01-10T08:18:58.450Z,1020.47
2019-01-10T08:19:58.487Z,1020.44
2019-01-10T08:20:58.542Z,1020.48
2019-01-10T08:21:58.583Z,1020.48
2019-01-10T08:22:58.539Z,1020.46
2019-01-10T08:23:58.542Z,1020.45
2019-01-10T08:24:58.595Z,1020.53
2019-01-10T08:25:58.565Z,1020.51
2019-01-10T08:26:58.624Z,1020.50
2019-01-10T08:27:59.567Z,1020.52
2019-01-10T08:28:58.596Z,1020.52
2019-01-10T08:29:58.572Z,1020.54
2019-01-10T08:30:58.582Z,1020.51
2019-01-10T08:31:59.239Z,1020.63
2019-01-10T08:32:58.645Z,1020.60
2019-01-10T08:33:58.648Z,1020.64
2019-01-10T08:34:58.648Z,1020.67
2019-01-10T08:35:58.658Z,1020.68
2019-01-10T08:36:58.646Z,1020.69
2019-01-10T08:37:58.677Z,1020.66
2019-01-10T08:38:58.669Z,1020.66
2019-01-10T08:39:58.700Z,1020.67
2019-01-10T08:40:58.695Z,1020.65
2019-01-10T08:41:58.706Z,1020.66
2019-01-10T08:42:58.806Z,1020.73
2019-01-10T08:43:58.804Z,1020.69
2019-01-10T08:44:58.797Z,1020.73
2019-01-10T08:45:58.769Z,1020.70
2019-01-10T08:46:58.828Z,1020.68
2019-01-10T08:47:58.773Z,1020.72
2019-01-10T08:48:58.798Z,1020.70
2019-01-10T08:49:58.790Z,1020.73
2019-01-10T08:50:58.855Z,1020.71
2019-01-10T08:51:58.887Z,1020.69
2019-01-10T08:52:58.820Z,1020.71
2019-01-10T08:53:58.856Z,1020.74
2019-01-10T08:54:58.919Z,1020.71
2019-01-10T08:55:58.912Z,1020.68
2019-01-10T08:56:58.897Z,1020.70
2019-01-10T08:57:58.921Z,1020.72
2019-01-10T08:58:58.906Z,1020.65
2019-01-10T08:59:58.889Z,1020.67
2019-01-10T09:00:58.910Z,1020.71
2019-01-10T09:01:58.915Z,1020.70
2019-01-10T09:02:58.995Z,1020.69
2019-01-10T09:03:58.938Z,1020.68
2019-01-10T09:04:58.963Z,1020.70
2019-01-10T09:06:07.888Z,1020.71
2019-01-10T09:06:59.051Z,1020.68
2019-01-10T09:07:58.987Z,1020.67
2019-01-10T09:09:01.050Z,1020.69
2019-01-10T09:09:59.002Z,1020.70
2019-01-10T09:10:59.749Z,1020.70
2019-01-10T09:11:59.063Z,1020.74
2019-01-10T09:12:59.055Z,1020.76
2019-01-10T09:13:59.046Z,1020.76
2019-01-10T09:14:59.113Z,1020.80
2019-01-10T09:15:59.141Z,1020.81
2019-01-10T09:16:59.129Z,1020.83
2019-01-10T09:17:59.125Z,1020.85
2019-01-10T09:18:59.138Z,1020.83
2019-01-10T09:19:59.161Z,1020.79
2019-01-10T09:21:04.280Z,1020.80
2019-01-10T09:21:59.123Z,1020.84
2019-01-10T09:22:59.215Z,1020.83
2019-01-10T09:23:59.161Z,1020.86
2019-01-10T09:24:59.222Z,1020.85
2019-01-10T09:25:59.175Z,1020.81
2019-01-10T09:26:59.184Z,1020.88
2019-01-10T09:27:59.189Z,1020.89
2019-01-10T09:28:59.211Z,1020.90
2019-01-10T09:29:59.218Z,1020.83
2019-01-10T09:30:59.258Z,1020.87
2019-01-10T09:31:59.301Z,1020.84
2019-01-10T09:32:59.244Z,1020.88
2019-01-10T09:33:59.257Z,1020.90
2019-01-10T09:34:59.268Z,1020.89
2019-01-10T09:35:59.313Z,1020.94
2019-01-10T09:36:59.435Z,1020.93
2019-01-10T09:37:59.307Z,1020.98
2019-01-10T09:38:59.342Z,1020.98
2019-01-10T09:39:59.359Z,1020.99
2019-01-10T09:40:59.932Z,1020.94
2019-01-10T09:42:00.189Z,1021.05
2019-01-10T09:42:59.593Z,1021.08
2019-01-10T09:45:25.698Z,1021.11
